createdAt,value
2019-05-28T00:00:01.050Z,26.75
2019-05-28T00:02:23.413Z,30.97
2019-05-28T00:04:57.111Z,33.90
2019-05-28T00:07:30.935Z,29.40
2019-05-28T00:10:05.878Z,32.00
2019-05-28T00:15:32.293Z,30.68
2019-05-28T00:18:06.270Z,33.02
2019-05-28T00:20:39.967Z,32.35
2019-05-28T00:23:13.719Z,31.30
2019-05-28T00:25:47.706Z,31.75
2019-05-28T00:28:21.394Z,32.63
2019-05-28T00:30:55.159Z,32.15
2019-05-28T00:33:28.865Z,36.42
2019-05-28T00:36:03.283Z,38.70
2019-05-28T00:38:36.957Z,37.40
2019-05-28T00:41:13.524Z,36.73
2019-05-28T00:43:47.628Z,35.68
2019-05-28T00:46:21.458Z,32.33
2019-05-28T00:48:55.160Z,34.70
2019-05-28T00:51:29.246Z,34.15
2019-05-28T00:54:03.028Z,35.48
2019-05-28T00:56:37.119Z,35.78
2019-05-28T00:59:11.661Z,37.45
2019-05-28T01:01:45.966Z,39.45
2019-05-28T01:04:19.647Z,38.45
2019-05-28T01:06:54.972Z,34.13
2019-05-28T01:09:28.733Z,34.58
2019-05-28T01:12:02.850Z,34.92
2019-05-28T01:14:36.598Z,33.35
2019-05-28T01:17:10.300Z,32.55
2019-05-28T01:19:45.138Z,38.70
2019-05-28T01:22:18.848Z,33.28
2019-05-28T01:24:52.610Z,39.55
2019-05-28T01:27:26.427Z,38.40
2019-05-28T01:30:00.507Z,34.08
2019-05-28T01:32:35.913Z,35.28
2019-05-28T01:35:10.398Z,36.13
2019-05-28T01:37:44.507Z,34.67
2019-05-28T01:40:23.056Z,33.73
2019-05-28T01:42:54.723Z,34.55
2019-05-28T01:45:28.427Z,36.23
2019-05-28T01:48:02.207Z,34.40
2019-05-28T01:50:37.092Z,36.20
2019-05-28T01:53:10.820Z,39.03
2019-05-28T01:55:44.729Z,40.70
2019-05-28T01:58:18.542Z,45.70
2019-05-28T02:00:52.418Z,54.77
2019-05-28T02:03:26.117Z,40.33
2019-05-28T02:05:59.884Z,49.67
2019-05-28T02:08:33.610Z,44.08
2019-05-28T02:11:07.379Z,45.75
2019-05-28T02:13:41.103Z,40.65
2019-05-28T02:16:14.778Z,44.48
2019-05-28T02:18:50.428Z,43.45
2019-05-28T02:21:24.145Z,48.25
2019-05-28T02:24:02.266Z,44.98
2019-05-28T02:26:36.138Z,44.15
2019-05-28T02:29:10.469Z,49.53
2019-05-28T02:31:44.266Z,47.93
2019-05-28T02:34:17.980Z,49.93
2019-05-28T02:36:53.402Z,53.33
2019-05-28T02:39:27.154Z,50.25
2019-05-28T02:42:01.358Z,53.40
2019-05-28T02:44:35.055Z,56.60
2019-05-28T02:47:08.737Z,58.20
2019-05-28T02:49:42.455Z,55.25
2019-05-28T02:52:17.483Z,52.10
2019-05-28T02:54:51.655Z,53.20
2019-05-28T02:57:27.902Z,51.65
2019-05-28T03:00:05.378Z,56.58
2019-05-28T03:02:41.421Z,56.33
2019-05-28T03:05:16.670Z,52.43
2019-05-28T03:07:55.612Z,56.33
2019-05-28T03:11:01.449Z,58.80
2019-05-28T03:13:15.147Z,55.45
2019-05-28T03:15:53.857Z,55.50
2019-05-28T03:18:30.420Z,54.53
2019-05-28T03:21:08.544Z,49.42
2019-05-28T03:23:44.482Z,56.98
2019-05-28T03:26:18.127Z,52.85
2019-05-28T03:28:51.955Z,59.83
2019-05-28T03:31:28.657Z,57.25
2019-05-28T03:34:03.294Z,61.10
2019-05-28T03:36:38.849Z,55.17
2019-05-28T03:39:13.458Z,58.05
2019-05-28T03:41:47.641Z,55.30
2019-05-28T03:44:22.094Z,56.00
2019-05-28T03:46:55.857Z,53.40
2019-05-28T03:49:29.582Z,51.53
2019-05-28T03:52:03.365Z,50.83
2019-05-28T03:54:37.978Z,53.33
2019-05-28T03:57:11.759Z,54.53
2019-05-28T03:59:46.358Z,49.67
2019-05-28T04:02:23.472Z,50.85
2019-05-28T04:04:56.091Z,52.98
2019-05-28T04:07:29.758Z,52.53
2019-05-28T04:10:03.515Z,47.33
2019-05-28T04:12:37.287Z,49.08
2019-05-28T04:15:12.189Z,42.80
2019-05-28T04:17:46.742Z,49.93
2019-05-28T04:20:21.017Z,41.42
2019-05-28T04:22:55.099Z,41.92
2019-05-28T04:25:29.128Z,40.30
2019-05-28T04:28:02.894Z,39.98
2019-05-28T04:30:36.584Z,38.75
2019-05-28T04:33:10.260Z,37.55
2019-05-28T04:35:43.964Z,36.38
2019-05-28T04:38:19.567Z,36.35
2019-05-28T04:40:53.826Z,35.23
2019-05-28T04:43:27.520Z,36.42
2019-05-28T04:46:01.326Z,35.80
2019-05-28T04:48:35.128Z,36.15
2019-05-28T04:51:08.831Z,37.23
2019-05-28T04:53:43.403Z,39.50
2019-05-28T04:56:17.815Z,38.90
2019-05-28T04:58:51.606Z,41.53
2019-05-28T05:01:29.447Z,40.50
2019-05-28T05:04:07.401Z,37.85
2019-05-28T05:06:42.128Z,40.28
2019-05-28T05:09:15.816Z,38.73
2019-05-28T05:11:50.075Z,37.13
2019-05-28T05:14:25.272Z,35.43
2019-05-28T05:16:59.049Z,34.48
2019-05-28T05:19:32.865Z,32.20
2019-05-28T05:22:06.596Z,36.77
2019-05-28T05:24:40.366Z,35.25
2019-05-28T05:27:14.223Z,35.17
2019-05-28T05:29:48.438Z,40.17
2019-05-28T05:32:27.752Z,37.05
2019-05-28T05:35:00.324Z,33.98
2019-05-28T05:37:34.557Z,31.48
2019-05-28T05:40:10.784Z,32.93
2019-05-28T05:42:45.421Z,30.08
2019-05-28T05:45:19.397Z,30.25
2019-05-28T05:47:53.119Z,28.87
2019-05-28T05:50:26.795Z,28.32
2019-05-28T05:53:02.173Z,30.48
2019-05-28T05:55:35.899Z,30.55
2019-05-28T05:58:09.660Z,25.75
2019-05-28T06:00:45.058Z,25.77
2019-05-28T06:03:36.715Z,26.10
2019-05-28T06:05:55.538Z,25.00
2019-05-28T06:08:29.367Z,24.25
2019-05-28T06:11:03.655Z,25.52
2019-05-28T06:13:39.307Z,24.72
2019-05-28T06:16:14.085Z,22.02
2019-05-28T06:18:54.243Z,22.55
2019-05-28T06:21:28.047Z,22.45
2019-05-28T06:24:02.268Z,21.37
2019-05-28T06:26:35.979Z,21.87
2019-05-28T06:29:10.216Z,24.77
2019-05-28T06:31:44.540Z,24.23
2019-05-28T06:34:18.338Z,23.12
2019-05-28T06:36:52.016Z,23.02
2019-05-28T06:39:25.766Z,20.45
2019-05-28T06:41:59.418Z,19.07
2019-05-28T06:44:33.157Z,18.48
2019-05-28T06:47:07.130Z,17.65
2019-05-28T06:49:40.950Z,18.87
2019-05-28T06:52:14.631Z,20.08
2019-05-28T06:54:48.365Z,18.30
2019-05-28T06:57:23.330Z,17.92
2019-05-28T06:59:57.409Z,17.37
2019-05-28T07:02:31.070Z,16.87
2019-05-28T07:05:08.824Z,16.55
2019-05-28T07:07:42.490Z,15.38
2019-05-28T07:10:16.919Z,15.03
2019-05-28T07:12:50.627Z,17.92
2019-05-28T07:15:24.379Z,14.93
2019-05-28T07:17:59.728Z,15.40
2019-05-28T07:20:33.511Z,14.73
2019-05-28T07:23:07.285Z,14.70
2019-05-28T07:25:41.898Z,15.00
2019-05-28T07:28:19.739Z,14.43
2019-05-28T07:30:54.322Z,13.62
2019-05-28T07:33:28.177Z,12.60
2019-05-28T07:36:02.019Z,12.40
2019-05-28T07:38:36.188Z,11.15
2019-05-28T07:41:09.982Z,11.00
2019-05-28T07:43:43.641Z,12.68
2019-05-28T07:46:17.873Z,9.25
2019-05-28T07:48:51.539Z,10.05
2019-05-28T07:51:25.409Z,9.55
2019-05-28T07:53:59.178Z,8.93
2019-05-28T07:56:33.771Z,8.00
2019-05-28T07:59:07.466Z,7.90
2019-05-28T08:01:41.263Z,9.40
2019-05-28T08:04:15.067Z,8.85
2019-05-28T08:06:54.749Z,7.55
2019-05-28T08:09:24.148Z,9.83
2019-05-28T08:12:00.833Z,6.40
2019-05-28T08:14:34.491Z,8.73
2019-05-28T08:17:08.167Z,6.28
2019-05-28T08:19:42.066Z,7.95
2019-05-28T08:22:16.433Z,6.33
2019-05-28T08:24:50.128Z,5.80
2019-05-28T08:27:23.936Z,9.98
2019-05-28T08:29:58.698Z,7.67
2019-05-28T08:32:32.496Z,6.03
2019-05-28T08:35:07.655Z,5.67
2019-05-28T08:37:43.244Z,6.55
2019-05-28T08:40:18.558Z,6.72
2019-05-28T08:42:52.380Z,5.50
2019-05-28T08:45:26.322Z,8.13
2019-05-28T08:48:00.127Z,7.72
2019-05-28T08:50:35.289Z,6.85
2019-05-28T08:53:09.570Z,6.00
2019-05-28T08:55:43.353Z,10.03
2019-05-28T08:58:17.537Z,9.93
2019-05-28T09:00:51.240Z,7.15
2019-05-28T09:03:27.680Z,8.45
2019-05-28T09:06:01.370Z,8.45
2019-05-28T09:08:39.364Z,9.20
2019-05-28T09:11:10.790Z,9.73
2019-05-28T09:13:44.720Z,10.13
2019-05-28T09:16:18.598Z,10.85
2019-05-28T09:18:52.481Z,11.28
2019-05-28T09:21:26.203Z,10.88
2019-05-28T09:24:00.023Z,11.25
2019-05-28T09:26:33.816Z,11.73
2019-05-28T09:29:07.546Z,12.33
2019-05-28T09:31:41.353Z,12.18
2019-05-28T09:34:15.941Z,13.93
2019-05-28T09:36:53.848Z,14.07
2019-05-28T09:39:27.561Z,14.45
2019-05-28T09:42:01.649Z,14.50
2019-05-28T09:44:35.671Z,14.83
2019-05-28T09:47:09.363Z,15.25
2019-05-28T09:49:43.067Z,16.12
2019-05-28T09:52:16.773Z,15.72
2019-05-28T09:54:50.492Z,15.60
2019-05-28T09:57:24.158Z,15.50
2019-05-28T09:59:58.465Z,18.42
2019-05-28T10:02:39.045Z,19.23
2019-05-28T10:05:13.386Z,17.27
2019-05-28T10:07:47.065Z,17.57
2019-05-28T10:10:22.079Z,18.48
2019-05-28T10:12:56.584Z,18.12
2019-05-28T10:15:30.473Z,20.50
2019-05-28T10:18:04.848Z,19.25
2019-05-28T10:20:38.586Z,18.37
2019-05-28T10:23:12.451Z,18.75
2019-05-28T10:25:46.527Z,19.77
2019-05-28T10:28:20.333Z,21.40
2019-05-28T10:30:54.129Z,19.77
2019-05-28T10:33:27.828Z,20.15
2019-05-28T10:36:04.658Z,21.15
2019-05-28T10:38:40.919Z,20.10
2019-05-28T10:41:14.637Z,17.62
2019-05-28T10:43:48.380Z,19.62
2019-05-28T10:46:22.161Z,19.07
2019-05-28T10:48:56.041Z,19.60
2019-05-28T10:51:31.396Z,30.48
2019-05-28T10:54:06.787Z,23.07
2019-05-28T10:56:41.656Z,23.12
2019-05-28T10:59:15.877Z,21.70
2019-05-28T11:01:50.130Z,22.67
2019-05-28T11:04:27.438Z,22.20
2019-05-28T11:07:01.315Z,22.62
2019-05-28T11:09:35.961Z,21.57
2019-05-28T11:12:09.817Z,23.40
2019-05-28T11:14:43.639Z,23.35
2019-05-28T11:17:17.254Z,20.62
2019-05-28T11:19:51.578Z,23.10
2019-05-28T11:22:26.266Z,20.72
2019-05-28T11:25:02.630Z,17.50
2019-05-28T11:27:36.479Z,17.40
2019-05-28T11:30:15.411Z,16.97
2019-05-28T11:32:49.006Z,16.25
2019-05-28T11:35:23.871Z,15.75
2019-05-28T11:37:58.541Z,13.28
2019-05-28T11:40:32.342Z,12.93
2019-05-28T11:43:06.128Z,14.70
2019-05-28T11:45:39.926Z,14.93
2019-05-28T11:48:13.655Z,14.13
2019-05-28T11:50:48.284Z,14.65
2019-05-28T11:53:27.129Z,13.45
2019-05-28T11:56:00.968Z,12.60
2019-05-28T11:58:35.842Z,11.78
2019-05-28T12:01:09.638Z,12.43
2019-05-28T12:03:43.433Z,12.30
2019-05-28T12:06:17.259Z,12.20
2019-05-28T12:08:51.279Z,12.75
2019-05-28T12:11:25.179Z,11.63
2019-05-28T12:13:59.019Z,12.63
2019-05-28T12:16:33.600Z,11.95
2019-05-28T12:19:08.248Z,12.73
2019-05-28T12:21:41.926Z,12.53
2019-05-28T12:24:16.710Z,12.35
2019-05-28T12:26:50.506Z,12.37
2019-05-28T12:29:24.305Z,13.50
2019-05-28T12:31:58.456Z,11.60
2019-05-28T12:34:32.700Z,12.65
2019-05-28T12:37:07.322Z,13.28
2019-05-28T12:39:41.230Z,14.07
2019-05-28T12:42:14.967Z,13.55
2019-05-28T12:45:08.312Z,13.38
2019-05-28T12:47:25.212Z,12.53
2019-05-28T12:50:17.175Z,13.03
2019-05-28T12:52:35.235Z,12.82
2019-05-28T12:55:11.527Z,13.98
2019-05-28T12:57:45.352Z,13.18
2019-05-28T13:00:21.039Z,12.90
2019-05-28T13:02:55.666Z,12.03
2019-05-28T13:05:30.892Z,9.98
2019-05-28T13:08:08.934Z,5.72
2019-05-28T13:10:40.164Z,6.75
2019-05-28T13:13:13.914Z,5.97
2019-05-28T13:15:47.616Z,6.05
2019-05-28T13:18:21.419Z,6.55
2019-05-28T13:20:55.250Z,8.03
2019-05-28T13:23:28.990Z,9.58
2019-05-28T13:26:05.909Z,8.90
2019-05-28T13:28:39.583Z,6.22
2019-05-28T13:31:13.478Z,9.00
2019-05-28T13:33:48.944Z,9.70
2019-05-28T13:36:22.738Z,12.10
2019-05-28T13:38:57.618Z,9.33
2019-05-28T13:45:18.837Z,8.73
2019-05-28T13:47:52.856Z,7.40
2019-05-28T13:50:29.467Z,7.08
2019-05-28T13:53:03.347Z,7.87
2019-05-28T13:55:37.179Z,6.37
2019-05-28T13:58:14.123Z,9.05
2019-05-28T14:00:49.086Z,7.72
2019-05-28T14:03:22.887Z,7.92
2019-05-28T14:05:56.711Z,7.75
2019-05-28T14:08:45.873Z,7.70
2019-05-28T14:11:06.039Z,7.72
2019-05-28T14:13:43.028Z,9.03
2019-05-28T14:16:16.733Z,7.47
2019-05-28T14:18:50.567Z,7.62
2019-05-28T14:21:24.410Z,7.58
2019-05-28T14:23:58.247Z,7.25
2019-05-28T14:26:32.283Z,6.65
2019-05-28T14:29:09.289Z,5.78
2019-05-28T14:31:44.742Z,8.10
2019-05-28T14:34:18.569Z,6.80
2019-05-28T14:36:52.361Z,5.92
2019-05-28T14:39:40.091Z,6.58
2019-05-28T14:42:03.985Z,7.28
2019-05-28T14:44:37.668Z,8.55
2019-05-28T14:47:12.471Z,8.78
2019-05-28T14:49:48.380Z,8.33
2019-05-28T14:52:22.048Z,7.17
2019-05-28T14:54:56.142Z,10.23
2019-05-28T14:57:29.971Z,5.75
2019-05-28T15:00:05.249Z,8.40
2019-05-28T15:02:39.140Z,8.18
2019-05-28T15:05:14.041Z,5.53
2019-05-28T15:07:49.748Z,5.17
2019-05-28T15:10:24.039Z,6.12
2019-05-28T15:12:57.751Z,5.35
2019-05-28T15:15:36.268Z,4.95
2019-05-28T15:18:09.668Z,7.03
2019-05-28T15:20:46.286Z,6.30
2019-05-28T15:23:20.298Z,4.70
2019-05-28T15:25:54.040Z,5.20
2019-05-28T15:28:28.230Z,6.67
2019-05-28T15:31:04.439Z,6.28
2019-05-28T15:33:38.637Z,4.25
2019-05-28T15:36:14.194Z,6.30
2019-05-28T15:38:49.593Z,5.42
2019-05-28T15:41:23.414Z,7.40
2019-05-28T15:43:57.446Z,6.53
2019-05-28T15:46:36.198Z,7.25
2019-05-28T15:49:10.377Z,5.75
2019-05-28T15:51:44.247Z,7.87
2019-05-28T15:54:18.073Z,5.62
2019-05-28T15:56:52.550Z,7.58
2019-05-28T15:59:26.340Z,5.25
2019-05-28T16:04:41.573Z,6.15
2019-05-28T16:07:16.505Z,4.30
2019-05-28T16:09:56.043Z,4.10
2019-05-28T16:12:25.857Z,5.17
2019-05-28T16:15:00.260Z,4.40
2019-05-28T16:17:34.016Z,3.10
2019-05-28T16:20:09.273Z,5.67
2019-05-28T16:22:42.964Z,5.20
2019-05-28T16:25:17.248Z,4.97
2019-05-28T16:27:51.217Z,6.37
2019-05-28T16:30:26.679Z,3.17
2019-05-28T16:33:03.471Z,2.75
2019-05-28T16:35:37.659Z,4.10
2019-05-28T16:38:11.514Z,4.15
2019-05-28T16:40:45.750Z,5.42
2019-05-28T16:43:19.373Z,3.02
2019-05-28T16:45:53.672Z,3.05
2019-05-28T16:48:27.332Z,4.00
2019-05-28T16:51:01.210Z,3.02
2019-05-28T16:53:35.434Z,3.90
2019-05-28T16:56:09.172Z,4.08
2019-05-28T16:58:43.173Z,5.37
2019-05-28T17:01:22.447Z,4.58
2019-05-28T17:03:52.742Z,3.52
2019-05-28T17:06:26.522Z,4.60
2019-05-28T17:09:00.261Z,7.30
2019-05-28T17:11:34.601Z,5.78
2019-05-28T17:14:08.336Z,5.50
2019-05-28T17:16:44.040Z,5.55
2019-05-28T17:19:17.888Z,7.12
2019-05-28T17:21:52.192Z,7.90
2019-05-28T17:24:27.080Z,4.55
2019-05-28T17:27:01.639Z,5.62
2019-05-28T17:29:35.446Z,8.65
2019-05-28T17:32:09.111Z,7.72
2019-05-28T17:34:43.859Z,9.20
2019-05-28T17:37:17.805Z,7.10
2019-05-28T17:39:51.986Z,11.20
2019-05-28T17:42:25.917Z,12.00
2019-05-28T17:44:59.727Z,11.10
2019-05-28T17:47:42.525Z,8.40
2019-05-28T17:50:10.654Z,9.85
2019-05-28T17:52:45.223Z,5.72
2019-05-28T17:55:20.040Z,8.13
2019-05-28T17:57:54.235Z,8.53
2019-05-28T18:00:29.127Z,5.28
2019-05-28T18:03:02.918Z,7.97
2019-05-28T18:05:36.713Z,8.48
2019-05-28T18:08:10.454Z,5.45
2019-05-28T18:10:44.223Z,7.10
2019-05-28T18:13:18.811Z,9.45
2019-05-28T18:15:54.675Z,9.08
2019-05-28T18:18:29.776Z,9.15
2019-05-28T18:21:05.116Z,7.22
2019-05-28T18:23:38.832Z,62.15
2019-05-28T18:26:13.275Z,19.52
2019-05-28T18:28:47.033Z,9.23
2019-05-28T18:31:20.770Z,16.30
2019-05-28T18:33:56.309Z,10.35
2019-05-28T18:36:30.173Z,13.30
2019-05-28T18:39:04.881Z,11.33
2019-05-28T18:41:40.517Z,14.18
2019-05-28T18:44:14.238Z,12.60
2019-05-28T18:46:51.381Z,7.30
2019-05-28T18:49:27.418Z,12.78
2019-05-28T18:52:02.058Z,13.00
2019-05-28T18:54:35.749Z,13.50
2019-05-28T18:57:09.560Z,11.88
2019-05-28T18:59:43.389Z,14.90
2019-05-28T19:02:17.438Z,14.80
2019-05-28T19:04:51.149Z,8.73
2019-05-28T19:07:24.958Z,15.40
2019-05-28T19:09:58.744Z,13.50
2019-05-28T19:12:32.571Z,14.35
2019-05-28T19:15:10.801Z,15.20
2019-05-28T19:17:44.557Z,15.10
2019-05-28T19:20:19.147Z,14.47
2019-05-28T19:22:53.209Z,16.73
2019-05-28T19:25:27.662Z,13.53
2019-05-28T19:28:06.526Z,23.85
2019-05-28T19:30:40.405Z,12.33
2019-05-28T19:33:14.196Z,12.58
2019-05-28T19:38:44.998Z,12.80
2019-05-28T19:41:09.690Z,21.90
2019-05-28T19:43:43.588Z,19.57
2019-05-28T19:46:17.340Z,39.95
2019-05-28T19:48:51.040Z,44.45
2019-05-28T19:51:24.827Z,43.55
2019-05-28T19:53:59.956Z,28.35
2019-05-28T19:56:36.162Z,28.83
2019-05-28T19:59:09.945Z,35.35
2019-05-28T20:01:43.757Z,39.48
2019-05-28T20:04:18.157Z,42.33
2019-05-28T20:06:51.949Z,25.77
2019-05-28T20:09:25.762Z,27.32
2019-05-28T20:12:11.486Z,27.35
2019-05-28T20:14:36.451Z,25.10
2019-05-28T20:17:11.379Z,28.02
2019-05-28T20:19:45.329Z,27.98
2019-05-28T20:22:20.114Z,18.00
2019-05-28T20:24:54.482Z,25.92
2019-05-28T20:27:28.249Z,18.27
2019-05-28T20:30:03.180Z,17.40
2019-05-28T20:32:37.979Z,14.53
2019-05-28T20:35:12.957Z,16.67
2019-05-28T20:37:47.077Z,18.10
2019-05-28T20:40:21.308Z,16.30
2019-05-28T20:42:55.048Z,17.27
2019-05-28T20:45:29.348Z,16.05
2019-05-28T20:48:04.506Z,31.80
2019-05-28T20:50:38.498Z,15.83
2019-05-28T20:53:12.375Z,17.73
2019-05-28T20:55:46.513Z,16.75
2019-05-28T20:58:20.254Z,18.02
2019-05-28T21:00:54.094Z,17.62
2019-05-28T21:03:31.569Z,15.93
2019-05-28T21:06:08.830Z,15.20
2019-05-28T21:08:46.058Z,16.40
2019-05-28T21:11:20.337Z,16.27
2019-05-28T21:13:54.737Z,14.15
2019-05-28T21:16:28.467Z,12.80
2019-05-28T21:19:02.218Z,20.23
2019-05-28T21:21:35.888Z,18.73
2019-05-28T21:24:09.627Z,20.45
2019-05-28T21:26:43.296Z,18.52
2019-05-28T21:29:17.026Z,17.60
2019-05-28T21:31:51.085Z,17.73
2019-05-28T21:34:28.490Z,20.20
2019-05-28T21:37:05.627Z,21.52
2019-05-28T21:39:38.385Z,25.85
2019-05-28T21:42:12.239Z,27.22
2019-05-28T21:44:46.300Z,28.35
2019-05-28T21:47:20.464Z,30.72
2019-05-28T21:49:54.611Z,28.07
2019-05-28T21:52:29.811Z,23.87
2019-05-28T21:55:08.030Z,21.60
2019-05-28T21:57:41.845Z,22.10
2019-05-28T22:00:45.090Z,20.95
2019-05-28T22:03:20.186Z,21.10
2019-05-28T22:05:57.192Z,22.93
2019-05-28T22:08:31.623Z,21.95
2019-05-28T22:11:06.449Z,21.00
2019-05-28T22:13:41.928Z,27.42
2019-05-28T22:16:15.550Z,22.10
2019-05-28T22:18:49.864Z,22.00
2019-05-28T22:21:24.059Z,23.20
2019-05-28T22:23:58.432Z,24.55
2019-05-28T22:26:35.945Z,20.43
2019-05-28T22:29:09.647Z,20.17
2019-05-28T22:31:44.216Z,20.55
2019-05-28T22:34:18.239Z,19.57
2019-05-28T22:36:52.271Z,19.60
2019-05-28T22:39:29.496Z,18.25
2019-05-28T22:42:03.822Z,16.12
2019-05-28T22:44:38.457Z,19.45
2019-05-28T22:47:13.509Z,17.70
2019-05-28T22:49:47.248Z,17.50
2019-05-28T22:52:20.937Z,15.45
2019-05-28T22:54:54.691Z,15.25
2019-05-28T22:57:28.393Z,16.55
2019-05-28T23:00:03.076Z,16.45
2019-05-28T23:02:40.345Z,14.95
2019-05-28T23:05:16.881Z,15.35
2019-05-28T23:07:52.332Z,14.85
2019-05-28T23:10:26.011Z,15.53
2019-05-28T23:13:00.857Z,15.75
2019-05-28T23:15:34.822Z,13.58
2019-05-28T23:18:11.007Z,12.35
2019-05-28T23:23:41.549Z,14.25
2019-05-28T23:26:16.558Z,11.10
2019-05-28T23:28:50.261Z,10.95
2019-05-28T23:31:23.946Z,13.78
2019-05-28T23:33:58.183Z,16.23
2019-05-28T23:36:33.376Z,14.18
2019-05-28T23:39:09.090Z,12.35
2019-05-28T23:41:43.313Z,9.75
2019-05-28T23:44:19.750Z,13.88
2019-05-28T23:46:53.823Z,12.07
2019-05-28T23:49:27.618Z,10.68
2019-05-28T23:52:02.953Z,10.35
2019-05-28T23:54:36.805Z,12.35
2019-05-28T23:57:11.902Z,11.83
2019-05-28T23:59:45.957Z,11.10
